sensor_id;sensor_type;location;lat;lon;timestamp;P1;durP1;ratioP1;P2;durP2;ratioP2
56081;SDS011;41957;52.060;5.138;2022-08-16T00:01:45;21.75;;;15.82;;
56081;SDS011;41957;52.060;5.138;2022-08-16T00:04:11;22.40;;;15.63;;
56081;SDS011;41957;52.060;5.138;2022-08-16T00:06:37;20.63;;;15.02;;
56081;SDS011;41957;52.060;5.138;2022-08-16T00:09:03;20.95;;;15.25;;
56081;SDS011;41957;52.060;5.138;2022-08-16T00:11:29;21.25;;;15.25;;
56081;SDS011;41957;52.060;5.138;2022-08-16T00:13:54;20.48;;;15.02;;
56081;SDS011;41957;52.060;5.138;2022-08-16T00:16:25;21.67;;;15.50;;
56081;SDS011;41957;52.060;5.138;2022-08-16T00:18:52;20.67;;;15.13;;
56081;SDS011;41957;52.060;5.138;2022-08-16T00:21:17;20.50;;;15.20;;
56081;SDS011;41957;52.060;5.138;2022-08-16T00:23:43;21.23;;;15.20;;
56081;SDS011;41957;52.060;5.138;2022-08-16T00:26:08;22.15;;;15.50;;
56081;SDS011;41957;52.060;5.138;2022-08-16T00:28:33;21.17;;;15.20;;
56081;SDS011;41957;52.060;5.138;2022-08-16T00:30:59;20.63;;;14.63;;
56081;SDS011;41957;52.060;5.138;2022-08-16T00:33:24;20.80;;;14.73;;
56081;SDS011;41957;52.060;5.138;2022-08-16T00:35:50;20.85;;;14.73;;
56081;SDS011;41957;52.060;5.138;2022-08-16T00:38:15;20.63;;;15.57;;
56081;SDS011;41957;52.060;5.138;2022-08-16T00:40:42;21.45;;;15.15;;
56081;SDS011;41957;52.060;5.138;2022-08-16T00:43:17;21.52;;;15.55;;
56081;SDS011;41957;52.060;5.138;2022-08-16T00:46:12;20.77;;;14.52;;
56081;SDS011;41957;52.060;5.138;2022-08-16T00:48:44;19.52;;;14.57;;
56081;SDS011;41957;52.060;5.138;2022-08-16T00:51:10;21.20;;;15.10;;
56081;SDS011;41957;52.060;5.138;2022-08-16T00:53:37;21.92;;;15.80;;
56081;SDS011;41957;52.060;5.138;2022-08-16T00:56:05;21.75;;;14.98;;
56081;SDS011;41957;52.060;5.138;2022-08-16T00:58:36;21.23;;;15.38;;
56081;SDS011;41957;52.060;5.138;2022-08-16T01:01:04;20.92;;;14.80;;
56081;SDS011;41957;52.060;5.138;2022-08-16T01:03:30;19.98;;;14.35;;
56081;SDS011;41957;52.060;5.138;2022-08-16T01:05:56;21.00;;;15.15;;
56081;SDS011;41957;52.060;5.138;2022-08-16T01:08:22;20.52;;;15.18;;
56081;SDS011;41957;52.060;5.138;2022-08-16T01:10:48;20.50;;;15.00;;
56081;SDS011;41957;52.060;5.138;2022-08-16T01:13:16;21.30;;;14.68;;
56081;SDS011;41957;52.060;5.138;2022-08-16T01:15:49;22.33;;;15.43;;
56081;SDS011;41957;52.060;5.138;2022-08-16T01:18:30;21.17;;;15.45;;
56081;SDS011;41957;52.060;5.138;2022-08-16T01:21:04;20.08;;;14.80;;
56081;SDS011;41957;52.060;5.138;2022-08-16T01:24:10;20.88;;;15.13;;
56081;SDS011;41957;52.060;5.138;2022-08-16T01:26:42;20.17;;;14.52;;
56081;SDS011;41957;52.060;5.138;2022-08-16T01:29:10;20.83;;;15.60;;
56081;SDS011;41957;52.060;5.138;2022-08-16T01:31:40;21.02;;;14.85;;
56081;SDS011;41957;52.060;5.138;2022-08-16T01:34:05;20.77;;;14.75;;
56081;SDS011;41957;52.060;5.138;2022-08-16T01:36:32;20.95;;;15.00;;
56081;SDS011;41957;52.060;5.138;2022-08-16T01:38:59;20.92;;;15.05;;
56081;SDS011;41957;52.060;5.138;2022-08-16T01:41:31;20.17;;;14.82;;
56081;SDS011;41957;52.060;5.138;2022-08-16T01:43:57;20.75;;;14.38;;
56081;SDS011;41957;52.060;5.138;2022-08-16T01:48:53;20.27;;;14.70;;
56081;SDS011;41957;52.060;5.138;2022-08-16T01:51:24;21.63;;;15.13;;
56081;SDS011;41957;52.060;5.138;2022-08-16T01:53:51;20.05;;;13.93;;
56081;SDS011;41957;52.060;5.138;2022-08-16T01:56:17;22.70;;;15.65;;
56081;SDS011;41957;52.060;5.138;2022-08-16T01:58:43;20.50;;;14.73;;
56081;SDS011;41957;52.060;5.138;2022-08-16T02:01:09;20.92;;;14.70;;
56081;SDS011;41957;52.060;5.138;2022-08-16T02:03:34;21.25;;;15.32;;
56081;SDS011;41957;52.060;5.138;2022-08-16T02:06:00;20.85;;;14.60;;
56081;SDS011;41957;52.060;5.138;2022-08-16T02:08:25;19.90;;;14.63;;
56081;SDS011;41957;52.060;5.138;2022-08-16T02:10:51;21.58;;;14.40;;
56081;SDS011;41957;52.060;5.138;2022-08-16T02:13:18;20.52;;;14.35;;
56081;SDS011;41957;52.060;5.138;2022-08-16T02:15:44;19.95;;;14.45;;
56081;SDS011;41957;52.060;5.138;2022-08-16T02:18:10;20.13;;;14.57;;
56081;SDS011;41957;52.060;5.138;2022-08-16T02:20:36;21.20;;;14.70;;
56081;SDS011;41957;52.060;5.138;2022-08-16T02:23:04;20.17;;;14.13;;
56081;SDS011;41957;52.060;5.138;2022-08-16T02:25:30;19.83;;;14.63;;
56081;SDS011;41957;52.060;5.138;2022-08-16T02:27:55;21.80;;;15.38;;
56081;SDS011;41957;52.060;5.138;2022-08-16T02:30:23;21.52;;;14.95;;
56081;SDS011;41957;52.060;5.138;2022-08-16T02:32:50;20.17;;;14.68;;
56081;SDS011;41957;52.060;5.138;2022-08-16T02:35:15;20.95;;;14.50;;
56081;SDS011;41957;52.060;5.138;2022-08-16T02:37:41;21.85;;;15.48;;
56081;SDS011;41957;52.060;5.138;2022-08-16T02:40:08;21.00;;;14.68;;
56081;SDS011;41957;52.060;5.138;2022-08-16T02:42:34;20.23;;;15.02;;
56081;SDS011;41957;52.060;5.138;2022-08-16T02:45:00;21.85;;;16.05;;
56081;SDS011;41957;52.060;5.138;2022-08-16T02:47:26;20.95;;;14.48;;
56081;SDS011;41957;52.060;5.138;2022-08-16T02:49:51;21.85;;;15.32;;
56081;SDS011;41957;52.060;5.138;2022-08-16T02:52:17;22.30;;;15.00;;
56081;SDS011;41957;52.060;5.138;2022-08-16T02:54:42;20.27;;;14.75;;
56081;SDS011;41957;52.060;5.138;2022-08-16T02:57:08;21.80;;;15.25;;
56081;SDS011;41957;52.060;5.138;2022-08-16T02:59:33;20.52;;;14.65;;
56081;SDS011;41957;52.060;5.138;2022-08-16T03:01:59;20.88;;;14.65;;
56081;SDS011;41957;52.060;5.138;2022-08-16T03:04:24;21.30;;;15.65;;
56081;SDS011;41957;52.060;5.138;2022-08-16T03:06:49;23.02;;;15.75;;
56081;SDS011;41957;52.060;5.138;2022-08-16T03:09:15;21.52;;;14.77;;
56081;SDS011;41957;52.060;5.138;2022-08-16T03:11:41;20.02;;;14.57;;
56081;SDS011;41957;52.060;5.138;2022-08-16T03:14:07;22.95;;;15.05;;
56081;SDS011;41957;52.060;5.138;2022-08-16T03:16:32;20.25;;;14.68;;
56081;SDS011;41957;52.060;5.138;2022-08-16T03:18:58;19.85;;;14.27;;
56081;SDS011;41957;52.060;5.138;2022-08-16T03:21:23;20.27;;;14.65;;
56081;SDS011;41957;52.060;5.138;2022-08-16T03:23:49;20.90;;;15.13;;
56081;SDS011;41957;52.060;5.138;2022-08-16T03:26:15;19.88;;;15.45;;
56081;SDS011;41957;52.060;5.138;2022-08-16T03:28:41;21.70;;;15.32;;
56081;SDS011;41957;52.060;5.138;2022-08-16T03:31:06;21.58;;;15.63;;
56081;SDS011;41957;52.060;5.138;2022-08-16T03:33:33;20.02;;;14.57;;
56081;SDS011;41957;52.060;5.138;2022-08-16T03:35:59;20.42;;;14.77;;
56081;SDS011;41957;52.060;5.138;2022-08-16T03:38:25;21.63;;;15.43;;
56081;SDS011;41957;52.060;5.138;2022-08-16T03:40:53;20.83;;;14.88;;
56081;SDS011;41957;52.060;5.138;2022-08-16T03:43:20;21.42;;;14.85;;
56081;SDS011;41957;52.060;5.138;2022-08-16T03:45:45;21.02;;;14.63;;
56081;SDS011;41957;52.060;5.138;2022-08-16T03:48:11;21.35;;;14.98;;
56081;SDS011;41957;52.060;5.138;2022-08-16T03:50:36;21.13;;;15.20;;
56081;SDS011;41957;52.060;5.138;2022-08-16T03:53:03;20.65;;;14.98;;
56081;SDS011;41957;52.060;5.138;2022-08-16T03:55:29;22.33;;;15.55;;
56081;SDS011;41957;52.060;5.138;2022-08-16T03:57:54;21.23;;;15.55;;
56081;SDS011;41957;52.060;5.138;2022-08-16T04:00:22;20.50;;;14.80;;
56081;SDS011;41957;52.060;5.138;2022-08-16T04:02:51;20.63;;;14.73;;
56081;SDS011;41957;52.060;5.138;2022-08-16T04:05:19;21.25;;;15.23;;
56081;SDS011;41957;52.060;5.138;2022-08-16T04:07:45;21.30;;;15.18;;
56081;SDS011;41957;52.060;5.138;2022-08-16T04:10:11;21.13;;;14.75;;
56081;SDS011;41957;52.060;5.138;2022-08-16T04:12:37;21.63;;;15.23;;
56081;SDS011;41957;52.060;5.138;2022-08-16T04:15:05;21.63;;;15.07;;
56081;SDS011;41957;52.060;5.138;2022-08-16T04:17:33;20.83;;;14.95;;
56081;SDS011;41957;52.060;5.138;2022-08-16T04:19:59;20.42;;;15.20;;
56081;SDS011;41957;52.060;5.138;2022-08-16T04:22:24;20.88;;;15.48;;
56081;SDS011;41957;52.060;5.138;2022-08-16T04:24:50;21.50;;;14.93;;
56081;SDS011;41957;52.060;5.138;2022-08-16T04:27:15;20.75;;;15.70;;
56081;SDS011;41957;52.060;5.138;2022-08-16T04:29:41;27.58;;;18.33;;
56081;SDS011;41957;52.060;5.138;2022-08-16T04:32:06;26.15;;;18.52;;
56081;SDS011;41957;52.060;5.138;2022-08-16T04:34:33;27.25;;;17.25;;
56081;SDS011;41957;52.060;5.138;2022-08-16T04:36:59;26.13;;;17.85;;
56081;SDS011;41957;52.060;5.138;2022-08-16T04:39:26;27.13;;;18.30;;
56081;SDS011;41957;52.060;5.138;2022-08-16T04:41:52;25.10;;;17.55;;
56081;SDS011;41957;52.060;5.138;2022-08-16T04:44:17;26.55;;;17.63;;
56081;SDS011;41957;52.060;5.138;2022-08-16T04:46:43;27.77;;;18.10;;
56081;SDS011;41957;52.060;5.138;2022-08-16T04:49:08;28.13;;;18.63;;
56081;SDS011;41957;52.060;5.138;2022-08-16T04:51:35;29.45;;;20.65;;
56081;SDS011;41957;52.060;5.138;2022-08-16T04:54:02;26.92;;;19.10;;
56081;SDS011;41957;52.060;5.138;2022-08-16T04:56:27;28.25;;;18.58;;
56081;SDS011;41957;52.060;5.138;2022-08-16T04:58:53;28.85;;;18.95;;
56081;SDS011;41957;52.060;5.138;2022-08-16T05:01:18;27.10;;;18.95;;
56081;SDS011;41957;52.060;5.138;2022-08-16T05:03:44;28.50;;;19.10;;
56081;SDS011;41957;52.060;5.138;2022-08-16T05:06:10;29.75;;;19.15;;
56081;SDS011;41957;52.060;5.138;2022-08-16T05:08:36;28.63;;;19.83;;
56081;SDS011;41957;52.060;5.138;2022-08-16T05:11:02;28.73;;;19.17;;
56081;SDS011;41957;52.060;5.138;2022-08-16T05:13:30;28.42;;;19.88;;
56081;SDS011;41957;52.060;5.138;2022-08-16T05:15:56;30.25;;;19.92;;
56081;SDS011;41957;52.060;5.138;2022-08-16T05:18:21;32.67;;;21.92;;
56081;SDS011;41957;52.060;5.138;2022-08-16T05:20:46;28.63;;;19.45;;
56081;SDS011;41957;52.060;5.138;2022-08-16T05:23:12;31.20;;;21.13;;
56081;SDS011;41957;52.060;5.138;2022-08-16T05:25:37;33.58;;;21.38;;
56081;SDS011;41957;52.060;5.138;2022-08-16T05:28:04;26.42;;;17.55;;
56081;SDS011;41957;52.060;5.138;2022-08-16T05:30:29;23.65;;;13.60;;
56081;SDS011;41957;52.060;5.138;2022-08-16T05:32:54;28.67;;;20.42;;
56081;SDS011;41957;52.060;5.138;2022-08-16T05:35:20;29.33;;;20.50;;
56081;SDS011;41957;52.060;5.138;2022-08-16T05:37:45;32.28;;;21.75;;
56081;SDS011;41957;52.060;5.138;2022-08-16T05:40:11;33.97;;;22.55;;
56081;SDS011;41957;52.060;5.138;2022-08-16T05:42:37;31.80;;;21.83;;
56081;SDS011;41957;52.060;5.138;2022-08-16T05:45:03;29.38;;;21.65;;
56081;SDS011;41957;52.060;5.138;2022-08-16T05:47:30;32.75;;;22.02;;
56081;SDS011;41957;52.060;5.138;2022-08-16T05:49:55;29.45;;;21.73;;
56081;SDS011;41957;52.060;5.138;2022-08-16T05:52:21;35.40;;;23.90;;
56081;SDS011;41957;52.060;5.138;2022-08-16T05:54:46;30.02;;;22.08;;
56081;SDS011;41957;52.060;5.138;2022-08-16T05:57:11;33.20;;;21.83;;
56081;SDS011;41957;52.060;5.138;2022-08-16T05:59:38;31.85;;;22.27;;
56081;SDS011;41957;52.060;5.138;2022-08-16T06:02:04;30.35;;;22.58;;
56081;SDS011;41957;52.060;5.138;2022-08-16T06:04:30;32.45;;;22.70;;
56081;SDS011;41957;52.060;5.138;2022-08-16T06:06:56;27.42;;;18.67;;
56081;SDS011;41957;52.060;5.138;2022-08-16T06:09:21;24.40;;;16.20;;
56081;SDS011;41957;52.060;5.138;2022-08-16T06:11:47;25.52;;;14.65;;
56081;SDS011;41957;52.060;5.138;2022-08-16T06:14:13;21.90;;;13.32;;
56081;SDS011;41957;52.060;5.138;2022-08-16T06:16:38;20.58;;;13.18;;
56081;SDS011;41957;52.060;5.138;2022-08-16T06:19:04;19.45;;;12.50;;
56081;SDS011;41957;52.060;5.138;2022-08-16T06:21:29;21.98;;;13.07;;
56081;SDS011;41957;52.060;5.138;2022-08-16T06:23:55;20.42;;;12.90;;
56081;SDS011;41957;52.060;5.138;2022-08-16T06:26:20;18.83;;;11.23;;
56081;SDS011;41957;52.060;5.138;2022-08-16T06:28:46;19.15;;;12.50;;
56081;SDS011;41957;52.060;5.138;2022-08-16T06:31:12;20.10;;;12.80;;
56081;SDS011;41957;52.060;5.138;2022-08-16T06:33:39;20.40;;;12.00;;
56081;SDS011;41957;52.060;5.138;2022-08-16T06:36:05;18.92;;;12.07;;
56081;SDS011;41957;52.060;5.138;2022-08-16T06:38:33;20.23;;;13.02;;
56081;SDS011;41957;52.060;5.138;2022-08-16T06:40:59;21.73;;;12.15;;
56081;SDS011;41957;52.060;5.138;2022-08-16T06:43:24;19.45;;;11.18;;
56081;SDS011;41957;52.060;5.138;2022-08-16T06:45:50;19.90;;;11.30;;
56081;SDS011;41957;52.060;5.138;2022-08-16T06:48:15;19.23;;;12.07;;
56081;SDS011;41957;52.060;5.138;2022-08-16T06:50:40;19.05;;;11.38;;
56081;SDS011;41957;52.060;5.138;2022-08-16T06:53:06;18.30;;;11.32;;
56081;SDS011;41957;52.060;5.138;2022-08-16T06:55:32;18.65;;;11.70;;
56081;SDS011;41957;52.060;5.138;2022-08-16T06:58:00;17.92;;;11.23;;
56081;SDS011;41957;52.060;5.138;2022-08-16T07:00:26;18.52;;;11.23;;
56081;SDS011;41957;52.060;5.138;2022-08-16T07:02:51;26.33;;;18.38;;
56081;SDS011;41957;52.060;5.138;2022-08-16T07:05:17;34.15;;;21.42;;
56081;SDS011;41957;52.060;5.138;2022-08-16T07:07:44;31.35;;;22.33;;
56081;SDS011;41957;52.060;5.138;2022-08-16T07:10:13;31.95;;;23.05;;
56081;SDS011;41957;52.060;5.138;2022-08-16T07:12:38;31.13;;;23.02;;
56081;SDS011;41957;52.060;5.138;2022-08-16T07:15:04;31.13;;;22.80;;
56081;SDS011;41957;52.060;5.138;2022-08-16T07:17:31;27.55;;;19.08;;
56081;SDS011;41957;52.060;5.138;2022-08-16T07:19:57;26.35;;;17.13;;
56081;SDS011;41957;52.060;5.138;2022-08-16T07:22:24;34.92;;;21.75;;
56081;SDS011;41957;52.060;5.138;2022-08-16T07:24:50;31.02;;;21.75;;
56081;SDS011;41957;52.060;5.138;2022-08-16T07:27:15;33.83;;;22.83;;
56081;SDS011;41957;52.060;5.138;2022-08-16T07:29:41;34.30;;;23.63;;
56081;SDS011;41957;52.060;5.138;2022-08-16T07:32:06;31.48;;;23.40;;
56081;SDS011;41957;52.060;5.138;2022-08-16T07:34:32;32.97;;;23.42;;
56081;SDS011;41957;52.060;5.138;2022-08-16T07:36:58;35.30;;;23.98;;
56081;SDS011;41957;52.060;5.138;2022-08-16T07:39:27;32.67;;;23.15;;
56081;SDS011;41957;52.060;5.138;2022-08-16T07:41:53;33.35;;;24.13;;
56081;SDS011;41957;52.060;5.138;2022-08-16T07:44:19;32.80;;;24.30;;
56081;SDS011;41957;52.060;5.138;2022-08-16T07:46:44;36.03;;;25.50;;
56081;SDS011;41957;52.060;5.138;2022-08-16T07:49:10;32.80;;;25.13;;
56081;SDS011;41957;52.060;5.138;2022-08-16T07:51:35;37.03;;;26.67;;
56081;SDS011;41957;52.060;5.138;2022-08-16T07:54:02;33.92;;;25.10;;
56081;SDS011;41957;52.060;5.138;2022-08-16T07:56:29;35.67;;;25.23;;
56081;SDS011;41957;52.060;5.138;2022-08-16T07:58:54;33.47;;;25.08;;
56081;SDS011;41957;52.060;5.138;2022-08-16T08:01:20;34.70;;;26.20;;
56081;SDS011;41957;52.060;5.138;2022-08-16T08:03:49;34.75;;;26.15;;
56081;SDS011;41957;52.060;5.138;2022-08-16T08:06:17;36.63;;;25.38;;
56081;SDS011;41957;52.060;5.138;2022-08-16T08:08:44;36.30;;;26.67;;
56081;SDS011;41957;52.060;5.138;2022-08-16T08:11:09;37.25;;;25.85;;
56081;SDS011;41957;52.060;5.138;2022-08-16T08:13:35;37.88;;;27.00;;
56081;SDS011;41957;52.060;5.138;2022-08-16T08:16:00;34.63;;;25.77;;
56081;SDS011;41957;52.060;5.138;2022-08-16T08:18:26;34.58;;;24.60;;
56081;SDS011;41957;52.060;5.138;2022-08-16T08:20:51;35.42;;;25.67;;
56081;SDS011;41957;52.060;5.138;2022-08-16T08:23:16;36.05;;;24.77;;
56081;SDS011;41957;52.060;5.138;2022-08-16T08:25:42;38.97;;;26.77;;
56081;SDS011;41957;52.060;5.138;2022-08-16T08:28:09;35.80;;;24.98;;
56081;SDS011;41957;52.060;5.138;2022-08-16T08:30:35;39.33;;;26.58;;
56081;SDS011;41957;52.060;5.138;2022-08-16T08:33:01;34.65;;;25.77;;
56081;SDS011;41957;52.060;5.138;2022-08-16T08:35:27;34.30;;;24.90;;
56081;SDS011;41957;52.060;5.138;2022-08-16T08:37:52;32.15;;;22.67;;
56081;SDS011;41957;52.060;5.138;2022-08-16T08:40:19;34.13;;;24.70;;
56081;SDS011;41957;52.060;5.138;2022-08-16T08:42:45;36.03;;;24.73;;
56081;SDS011;41957;52.060;5.138;2022-08-16T08:45:12;30.30;;;23.27;;
56081;SDS011;41957;52.060;5.138;2022-08-16T08:47:38;34.15;;;23.83;;
56081;SDS011;41957;52.060;5.138;2022-08-16T08:50:05;32.10;;;24.10;;
56081;SDS011;41957;52.060;5.138;2022-08-16T08:52:31;32.30;;;22.60;;
56081;SDS011;41957;52.060;5.138;2022-08-16T08:54:57;31.25;;;22.67;;
56081;SDS011;41957;52.060;5.138;2022-08-16T08:57:22;37.05;;;22.63;;
56081;SDS011;41957;52.060;5.138;2022-08-16T08:59:48;32.00;;;22.65;;
56081;SDS011;41957;52.060;5.138;2022-08-16T09:02:14;34.10;;;25.38;;
56081;SDS011;41957;52.060;5.138;2022-08-16T09:04:41;34.30;;;23.90;;
56081;SDS011;41957;52.060;5.138;2022-08-16T09:07:08;34.35;;;24.15;;
56081;SDS011;41957;52.060;5.138;2022-08-16T09:09:34;34.83;;;26.33;;
56081;SDS011;41957;52.060;5.138;2022-08-16T09:12:00;37.63;;;25.58;;
56081;SDS011;41957;52.060;5.138;2022-08-16T09:14:26;35.60;;;25.50;;
56081;SDS011;41957;52.060;5.138;2022-08-16T09:16:52;30.92;;;22.25;;
56081;SDS011;41957;52.060;5.138;2022-08-16T09:19:18;35.65;;;24.15;;
56081;SDS011;41957;52.060;5.138;2022-08-16T09:21:45;33.05;;;22.80;;
56081;SDS011;41957;52.060;5.138;2022-08-16T09:24:13;35.67;;;24.88;;
56081;SDS011;41957;52.060;5.138;2022-08-16T09:26:38;31.98;;;23.48;;
56081;SDS011;41957;52.060;5.138;2022-08-16T09:29:05;32.30;;;23.35;;
56081;SDS011;41957;52.060;5.138;2022-08-16T09:31:31;31.25;;;23.13;;
56081;SDS011;41957;52.060;5.138;2022-08-16T09:33:56;33.47;;;23.95;;
56081;SDS011;41957;52.060;5.138;2022-08-16T09:36:21;34.90;;;23.27;;
56081;SDS011;41957;52.060;5.138;2022-08-16T09:38:47;35.33;;;23.85;;
56081;SDS011;41957;52.060;5.138;2022-08-16T09:41:12;37.08;;;25.67;;
56081;SDS011;41957;52.060;5.138;2022-08-16T09:43:38;34.70;;;22.15;;
56081;SDS011;41957;52.060;5.138;2022-08-16T09:46:04;32.95;;;21.83;;
56081;SDS011;41957;52.060;5.138;2022-08-16T09:48:31;32.75;;;21.45;;
56081;SDS011;41957;52.060;5.138;2022-08-16T09:50:57;30.10;;;21.15;;
56081;SDS011;41957;52.060;5.138;2022-08-16T09:53:23;29.88;;;20.52;;
56081;SDS011;41957;52.060;5.138;2022-08-16T09:55:52;31.83;;;21.42;;
56081;SDS011;41957;52.060;5.138;2022-08-16T09:58:19;31.67;;;22.17;;
56081;SDS011;41957;52.060;5.138;2022-08-16T10:00:48;31.42;;;21.35;;
56081;SDS011;41957;52.060;5.138;2022-08-16T10:03:15;27.80;;;20.98;;
56081;SDS011;41957;52.060;5.138;2022-08-16T10:05:41;30.38;;;21.10;;
56081;SDS011;41957;52.060;5.138;2022-08-16T10:08:07;29.90;;;19.95;;
56081;SDS011;41957;52.060;5.138;2022-08-16T10:10:33;29.50;;;20.90;;
56081;SDS011;41957;52.060;5.138;2022-08-16T10:12:59;28.38;;;19.35;;
56081;SDS011;41957;52.060;5.138;2022-08-16T10:15:39;29.33;;;22.33;;
56081;SDS011;41957;52.060;5.138;2022-08-16T10:18:07;31.45;;;22.50;;
56081;SDS011;41957;52.060;5.138;2022-08-16T10:20:38;31.98;;;19.98;;
56081;SDS011;41957;52.060;5.138;2022-08-16T10:23:10;29.20;;;18.27;;
56081;SDS011;41957;52.060;5.138;2022-08-16T10:25:38;26.05;;;17.08;;
56081;SDS011;41957;52.060;5.138;2022-08-16T10:28:06;24.10;;;16.70;;
56081;SDS011;41957;52.060;5.138;2022-08-16T10:30:31;23.17;;;15.93;;
56081;SDS011;41957;52.060;5.138;2022-08-16T10:32:56;21.20;;;14.05;;
56081;SDS011;41957;52.060;5.138;2022-08-16T10:35:22;24.73;;;15.65;;
56081;SDS011;41957;52.060;5.138;2022-08-16T10:37:48;21.55;;;13.95;;
56081;SDS011;41957;52.060;5.138;2022-08-16T10:40:14;20.42;;;13.02;;
56081;SDS011;41957;52.060;5.138;2022-08-16T10:42:40;21.30;;;13.63;;
56081;SDS011;41957;52.060;5.138;2022-08-16T10:45:05;23.65;;;14.80;;
56081;SDS011;41957;52.060;5.138;2022-08-16T10:47:31;19.80;;;12.88;;
56081;SDS011;41957;52.060;5.138;2022-08-16T10:49:56;20.08;;;13.50;;
56081;SDS011;41957;52.060;5.138;2022-08-16T10:52:23;20.63;;;13.65;;
56081;SDS011;41957;52.060;5.138;2022-08-16T10:54:49;21.23;;;13.57;;
56081;SDS011;41957;52.060;5.138;2022-08-16T10:57:15;21.33;;;13.77;;
56081;SDS011;41957;52.060;5.138;2022-08-16T10:59:40;20.00;;;13.57;;
56081;SDS011;41957;52.060;5.138;2022-08-16T11:02:09;18.88;;;12.98;;
56081;SDS011;41957;52.060;5.138;2022-08-16T11:04:35;20.83;;;13.52;;
56081;SDS011;41957;52.060;5.138;2022-08-16T11:07:02;21.17;;;14.27;;
56081;SDS011;41957;52.060;5.138;2022-08-16T11:09:29;23.75;;;16.67;;
56081;SDS011;41957;52.060;5.138;2022-08-16T11:11:55;24.65;;;17.27;;
56081;SDS011;41957;52.060;5.138;2022-08-16T11:14:20;28.20;;;19.83;;
56081;SDS011;41957;52.060;5.138;2022-08-16T11:16:45;27.08;;;19.48;;
56081;SDS011;41957;52.060;5.138;2022-08-16T11:19:11;29.50;;;20.08;;
56081;SDS011;41957;52.060;5.138;2022-08-16T11:21:36;29.52;;;19.73;;
56081;SDS011;41957;52.060;5.138;2022-08-16T11:24:02;26.00;;;17.95;;
56081;SDS011;41957;52.060;5.138;2022-08-16T11:26:29;23.60;;;15.35;;
56081;SDS011;41957;52.060;5.138;2022-08-16T11:28:55;23.70;;;14.82;;
56081;SDS011;41957;52.060;5.138;2022-08-16T11:31:21;24.05;;;15.25;;
56081;SDS011;41957;52.060;5.138;2022-08-16T11:33:47;23.30;;;15.23;;
56081;SDS011;41957;52.060;5.138;2022-08-16T11:36:13;23.38;;;14.70;;
56081;SDS011;41957;52.060;5.138;2022-08-16T11:38:38;21.38;;;15.13;;
56081;SDS011;41957;52.060;5.138;2022-08-16T11:41:03;22.25;;;13.85;;
56081;SDS011;41957;52.060;5.138;2022-08-16T11:43:30;22.98;;;13.55;;
56081;SDS011;41957;52.060;5.138;2022-08-16T11:46:01;23.17;;;13.98;;
56081;SDS011;41957;52.060;5.138;2022-08-16T11:48:31;19.88;;;13.70;;
56081;SDS011;41957;52.060;5.138;2022-08-16T11:50:58;21.58;;;13.52;;
56081;SDS011;41957;52.060;5.138;2022-08-16T11:53:24;19.15;;;12.73;;
56081;SDS011;41957;52.060;5.138;2022-08-16T11:55:52;19.40;;;12.88;;
56081;SDS011;41957;52.060;5.138;2022-08-16T11:58:19;18.88;;;12.43;;
56081;SDS011;41957;52.060;5.138;2022-08-16T12:00:45;19.40;;;11.68;;
56081;SDS011;41957;52.060;5.138;2022-08-16T12:03:11;18.95;;;11.65;;
56081;SDS011;41957;52.060;5.138;2022-08-16T12:05:37;21.83;;;12.45;;
56081;SDS011;41957;52.060;5.138;2022-08-16T12:08:04;17.77;;;12.52;;
56081;SDS011;41957;52.060;5.138;2022-08-16T12:10:32;19.80;;;13.73;;
56081;SDS011;41957;52.060;5.138;2022-08-16T12:12:58;19.58;;;12.60;;
56081;SDS011;41957;52.060;5.138;2022-08-16T12:15:24;19.98;;;12.70;;
56081;SDS011;41957;52.060;5.138;2022-08-16T12:17:50;18.15;;;12.43;;
56081;SDS011;41957;52.060;5.138;2022-08-16T12:20:19;20.20;;;13.68;;
56081;SDS011;41957;52.060;5.138;2022-08-16T12:22:48;19.48;;;13.82;;
56081;SDS011;41957;52.060;5.138;2022-08-16T12:25:16;18.48;;;13.02;;
56081;SDS011;41957;52.060;5.138;2022-08-16T12:27:43;19.20;;;13.20;;
56081;SDS011;41957;52.060;5.138;2022-08-16T12:30:11;19.15;;;13.15;;
56081;SDS011;41957;52.060;5.138;2022-08-16T12:32:38;22.35;;;14.07;;
56081;SDS011;41957;52.060;5.138;2022-08-16T12:35:04;18.85;;;14.02;;
56081;SDS011;41957;52.060;5.138;2022-08-16T12:37:32;20.15;;;13.32;;
56081;SDS011;41957;52.060;5.138;2022-08-16T12:39:59;19.70;;;13.02;;
56081;SDS011;41957;52.060;5.138;2022-08-16T12:42:24;18.35;;;13.07;;
56081;SDS011;41957;52.060;5.138;2022-08-16T12:44:51;19.30;;;13.40;;
56081;SDS011;41957;52.060;5.138;2022-08-16T12:47:17;20.42;;;12.90;;
56081;SDS011;41957;52.060;5.138;2022-08-16T12:50:03;18.67;;;13.07;;
56081;SDS011;41957;52.060;5.138;2022-08-16T12:52:31;19.08;;;13.00;;
56081;SDS011;41957;52.060;5.138;2022-08-16T12:54:57;19.45;;;13.65;;
56081;SDS011;41957;52.060;5.138;2022-08-16T12:57:22;18.15;;;13.10;;
56081;SDS011;41957;52.060;5.138;2022-08-16T12:59:49;19.92;;;13.93;;
56081;SDS011;41957;52.060;5.138;2022-08-16T13:02:15;19.98;;;13.32;;
56081;SDS011;41957;52.060;5.138;2022-08-16T13:04:41;17.98;;;13.40;;
56081;SDS011;41957;52.060;5.138;2022-08-16T13:07:06;20.40;;;13.73;;
56081;SDS011;41957;52.060;5.138;2022-08-16T13:09:32;19.60;;;14.25;;
56081;SDS011;41957;52.060;5.138;2022-08-16T13:14:32;19.88;;;13.68;;
56081;SDS011;41957;52.060;5.138;2022-08-16T13:17:04;18.98;;;13.38;;
56081;SDS011;41957;52.060;5.138;2022-08-16T13:19:32;19.23;;;13.63;;
56081;SDS011;41957;52.060;5.138;2022-08-16T13:21:58;19.92;;;13.45;;
56081;SDS011;41957;52.060;5.138;2022-08-16T13:24:24;21.48;;;13.35;;
56081;SDS011;41957;52.060;5.138;2022-08-16T13:26:50;22.35;;;14.27;;
56081;SDS011;41957;52.060;5.138;2022-08-16T13:29:15;19.67;;;13.32;;
56081;SDS011;41957;52.060;5.138;2022-08-16T13:31:40;19.48;;;13.50;;
56081;SDS011;41957;52.060;5.138;2022-08-16T13:34:06;18.75;;;13.80;;
56081;SDS011;41957;52.060;5.138;2022-08-16T13:36:31;17.52;;;12.18;;
56081;SDS011;41957;52.060;5.138;2022-08-16T13:38:57;19.83;;;13.10;;
56081;SDS011;41957;52.060;5.138;2022-08-16T13:41:24;18.67;;;13.15;;
56081;SDS011;41957;52.060;5.138;2022-08-16T13:43:51;20.15;;;13.75;;
56081;SDS011;41957;52.060;5.138;2022-08-16T13:46:17;18.98;;;13.30;;
56081;SDS011;41957;52.060;5.138;2022-08-16T13:48:43;20.58;;;12.82;;
56081;SDS011;41957;52.060;5.138;2022-08-16T13:51:08;18.45;;;13.52;;
56081;SDS011;41957;52.060;5.138;2022-08-16T13:53:34;18.42;;;13.40;;
56081;SDS011;41957;52.060;5.138;2022-08-16T13:56:00;18.92;;;13.88;;
56081;SDS011;41957;52.060;5.138;2022-08-16T13:58:26;19.08;;;13.55;;
56081;SDS011;41957;52.060;5.138;2022-08-16T14:00:52;18.40;;;13.65;;
56081;SDS011;41957;52.060;5.138;2022-08-16T14:03:17;18.50;;;13.10;;
56081;SDS011;41957;52.060;5.138;2022-08-16T14:05:45;18.88;;;12.98;;
56081;SDS011;41957;52.060;5.138;2022-08-16T14:08:10;19.30;;;13.27;;
56081;SDS011;41957;52.060;5.138;2022-08-16T14:10:35;18.92;;;13.38;;
56081;SDS011;41957;52.060;5.138;2022-08-16T14:13:01;18.42;;;13.95;;
56081;SDS011;41957;52.060;5.138;2022-08-16T14:15:26;17.85;;;13.38;;
56081;SDS011;41957;52.060;5.138;2022-08-16T14:17:52;17.75;;;13.20;;
56081;SDS011;41957;52.060;5.138;2022-08-16T14:20:18;19.25;;;13.80;;
56081;SDS011;41957;52.060;5.138;2022-08-16T14:22:44;18.40;;;13.13;;